Churchill Airport
CYYQ : now visible

Airfield :











YOU CAN JOIN US ON...

 
LOGIN :

Register | Disclaimer

   EN    FR    IT 

 









Legend :    VFR   Marginal VFR   IFR   Intensive IFR   Very Intensive IFR
Visi :
Ceiling :
>= 8 km
>= 3000ft
5 to 8 km
1000 to 3000 ft
1500m to 5 km
500 to 1000 ft
800 to 1500m
200 to 500 ft
< 800m
< 200 ft
Symbols :   Thunderstorms  Fog  Heavy snow  Heavy precipitations  Wind > 20 kt







- Airport Elevation : 94 ft
- IATA code : YYQ


CYYQ - Churchill

CURRENT METAR :
  • 202004Z 17009KT 15SM -RA OVC080 15/10 A2983 RMK AC8 SLP104 DENSITY ALT 300FT

EXPIRED METARs :
  • 201900Z 16010KT 15SM OVC120 15/10 A2984 RMK AC8 SLP107 DENSITY ALT 300FT
  • 201800Z 18009KT 15SM BKN110 14/09 A2987 RMK AC7 VIRGA SLP117 DENSITY ALT 100FT

TAF TAF CYYQ
Valid from the 20 at 18:00 until the 21 at 18:00 UTC


201745Z 2018/2118 19010KT P6SM BKN120
FM202100 18008KT P6SM OVC100
TEMPO 2021/2024 P6SM -SHRA SCT020 OVC060
FM210000 16010KT P6SM -RA SCT015 OVC060
TEMPO 2100/2103 4SM -SHRA BR BKN015 OVC060
FM210300 18010KT 5SM -RA BR BKN008 OVC015
FM210600 20010KT P6SM OVC008
BECMG 2110/2112 27012KT
BECMG 2113/2115 31015G25KT RMK NXT FCST BY 210000Z
No reported NOTAMs for that airfield.



MET'MAP, your aeronautical weather chart ! - Copyright ORBIFLY December 2007 - Disclaimer

ORBIFLY MET'MAP TEAM :

Programming & Development : Alexandra Zaïnal
Concept & Development : Baudouin d'Aumeries
Co-Development & Prog : Marc-Olivier Méhu
Technical & hardware support : Manuel Goepfert

Contact : metmap@orbifly.com




SOURCES & CREDITS :

   NOAA       Earth
Advisory